Aviation Digital Data Service (ADDS)

Output produced by METARs form (0839 UTC 24 March 2019)
found at http://www.aviationweather.gov/metar/data/
 
Forecast for: LERT (ROTA NAVAL STATI, ES)
Text: TAF LERT 240800Z 2409/2418 05008KT 9999 SCT030
Forecast period: 0900 to 1800 UTC 24 March 2019
Forecast type: FROM: standard forecast or significant change
Winds: from the NE (50 degrees) at 9 MPH (8 knots; 4.1 m/s)
Visibility: 6 or more miles 10+ km)
Ceiling: at least 12,000 feet AGL
Clouds: scattered clouds at 3000 feet AGL
Weather: no significant weather forecast for this period
Text: BECMG 2409/2411 11014KT
Forecast period: 0900 to 1800 UTC 24 March 2019
Forecast type: BECOMING: Conditions expected to become as follows by 1100 UTC 24 March 2019
Winds: from the ESE (110 degrees) at 16 MPH (14 knots; 7.2 m/s)
Visibility: 6 or more miles 10+ km)
Ceiling: at least 12,000 feet AGL
Clouds: scattered clouds at 3000 feet AGL
Weather: no significant weather forecast for this period
Text: TEMPO 2410/2418 11016G26KT
Forecast period: 1000 to 1800 UTC 24 March 2019
Forecast type: TEMPORARY: The following changes expected for less than half the time period
Winds: from the ESE (110 degrees) at 18 MPH (16 knots; 8.2 m/s)
gusting to 30 MPH (26 knots; 13.4 m/s)
Visibility: missing
Ceiling: unknown
Clouds: missing
Weather: no significant weather forecast for this period